sensor_id;sensor_type;location;lat;lon;timestamp;P1;durP1;ratioP1;P2;durP2;ratioP2
40288;SDS011;28991;52.028;5.526;2023-05-07T00:00:32;0.30;;;0.30;;
40288;SDS011;28991;52.028;5.526;2023-05-07T00:02:59;0.50;;;0.50;;
40288;SDS011;28991;52.028;5.526;2023-05-07T00:05:25;0.45;;;0.45;;
40288;SDS011;28991;52.028;5.526;2023-05-07T00:07:51;0.40;;;0.38;;
40288;SDS011;28991;52.028;5.526;2023-05-07T00:10:17;0.40;;;0.40;;
40288;SDS011;28991;52.028;5.526;2023-05-07T00:12:43;0.47;;;0.47;;
40288;SDS011;28991;52.028;5.526;2023-05-07T00:15:09;0.40;;;0.40;;
40288;SDS011;28991;52.028;5.526;2023-05-07T00:17:35;0.50;;;0.50;;
40288;SDS011;28991;52.028;5.526;2023-05-07T00:20:00;0.40;;;0.38;;
40288;SDS011;28991;52.028;5.526;2023-05-07T00:22:26;0.40;;;0.40;;
40288;SDS011;28991;52.028;5.526;2023-05-07T00:24:52;0.30;;;0.30;;
40288;SDS011;28991;52.028;5.526;2023-05-07T00:27:18;0.30;;;0.30;;
40288;SDS011;28991;52.028;5.526;2023-05-07T00:29:43;0.43;;;0.40;;
40288;SDS011;28991;52.028;5.526;2023-05-07T00:32:09;0.40;;;0.40;;
40288;SDS011;28991;52.028;5.526;2023-05-07T00:34:34;0.40;;;0.40;;
40288;SDS011;28991;52.028;5.526;2023-05-07T00:37:00;0.30;;;0.30;;
40288;SDS011;28991;52.028;5.526;2023-05-07T00:39:26;0.30;;;0.30;;
40288;SDS011;28991;52.028;5.526;2023-05-07T00:41:52;0.50;;;0.50;;
40288;SDS011;28991;52.028;5.526;2023-05-07T00:44:17;0.65;;;0.40;;
40288;SDS011;28991;52.028;5.526;2023-05-07T00:46:43;0.40;;;0.40;;
40288;SDS011;28991;52.028;5.526;2023-05-07T00:49:10;0.30;;;0.30;;
40288;SDS011;28991;52.028;5.526;2023-05-07T00:51:35;0.40;;;0.40;;
40288;SDS011;28991;52.028;5.526;2023-05-07T00:54:02;0.35;;;0.35;;
40288;SDS011;28991;52.028;5.526;2023-05-07T00:56:28;0.32;;;0.32;;
40288;SDS011;28991;52.028;5.526;2023-05-07T00:58:53;0.40;;;0.40;;
40288;SDS011;28991;52.028;5.526;2023-05-07T01:01:19;0.30;;;0.30;;
40288;SDS011;28991;52.028;5.526;2023-05-07T01:03:45;0.35;;;0.35;;
40288;SDS011;28991;52.028;5.526;2023-05-07T01:06:11;0.35;;;0.35;;
40288;SDS011;28991;52.028;5.526;2023-05-07T01:08:38;0.40;;;0.40;;
40288;SDS011;28991;52.028;5.526;2023-05-07T01:11:06;0.38;;;0.38;;
40288;SDS011;28991;52.028;5.526;2023-05-07T01:13:32;0.20;;;0.20;;
40288;SDS011;28991;52.028;5.526;2023-05-07T01:15:59;0.35;;;0.35;;
40288;SDS011;28991;52.028;5.526;2023-05-07T01:18:25;0.22;;;0.22;;
40288;SDS011;28991;52.028;5.526;2023-05-07T01:20:51;0.40;;;0.40;;
40288;SDS011;28991;52.028;5.526;2023-05-07T01:23:17;0.30;;;0.30;;
40288;SDS011;28991;52.028;5.526;2023-05-07T01:25:43;0.45;;;0.45;;
40288;SDS011;28991;52.028;5.526;2023-05-07T01:28:16;0.40;;;0.38;;
40288;SDS011;28991;52.028;5.526;2023-05-07T01:30:42;0.32;;;0.32;;
40288;SDS011;28991;52.028;5.526;2023-05-07T01:33:12;0.40;;;0.40;;
40288;SDS011;28991;52.028;5.526;2023-05-07T01:35:41;0.40;;;0.40;;
40288;SDS011;28991;52.028;5.526;2023-05-07T01:38:10;0.40;;;0.40;;
40288;SDS011;28991;52.028;5.526;2023-05-07T01:40:36;0.40;;;0.40;;
40288;SDS011;28991;52.028;5.526;2023-05-07T01:43:02;0.50;;;0.50;;
40288;SDS011;28991;52.028;5.526;2023-05-07T01:45:28;0.40;;;0.40;;
40288;SDS011;28991;52.028;5.526;2023-05-07T01:47:56;0.30;;;0.30;;
40288;SDS011;28991;52.028;5.526;2023-05-07T01:50:23;0.30;;;0.30;;
40288;SDS011;28991;52.028;5.526;2023-05-07T01:52:50;0.35;;;0.35;;
40288;SDS011;28991;52.028;5.526;2023-05-07T01:55:16;0.40;;;0.40;;
40288;SDS011;28991;52.028;5.526;2023-05-07T01:57:41;0.38;;;0.30;;
40288;SDS011;28991;52.028;5.526;2023-05-07T02:00:07;0.43;;;0.40;;
40288;SDS011;28991;52.028;5.526;2023-05-07T02:02:34;0.30;;;0.30;;
40288;SDS011;28991;52.028;5.526;2023-05-07T02:04:59;0.50;;;0.50;;
40288;SDS011;28991;52.028;5.526;2023-05-07T02:07:26;0.40;;;0.40;;
40288;SDS011;28991;52.028;5.526;2023-05-07T02:09:52;0.50;;;0.47;;
40288;SDS011;28991;52.028;5.526;2023-05-07T02:12:20;0.30;;;0.30;;
40288;SDS011;28991;52.028;5.526;2023-05-07T02:14:46;0.30;;;0.30;;
40288;SDS011;28991;52.028;5.526;2023-05-07T02:17:11;0.30;;;0.30;;
40288;SDS011;28991;52.028;5.526;2023-05-07T02:19:37;0.55;;;0.32;;
40288;SDS011;28991;52.028;5.526;2023-05-07T02:22:02;0.40;;;0.40;;
40288;SDS011;28991;52.028;5.526;2023-05-07T02:24:28;0.40;;;0.40;;
40288;SDS011;28991;52.028;5.526;2023-05-07T02:26:53;0.40;;;0.40;;
40288;SDS011;28991;52.028;5.526;2023-05-07T02:29:19;0.55;;;0.40;;
40288;SDS011;28991;52.028;5.526;2023-05-07T02:31:45;0.30;;;0.30;;
40288;SDS011;28991;52.028;5.526;2023-05-07T02:34:10;0.50;;;0.50;;
40288;SDS011;28991;52.028;5.526;2023-05-07T02:36:36;0.45;;;0.45;;
40288;SDS011;28991;52.028;5.526;2023-05-07T02:39:01;0.40;;;0.40;;
40288;SDS011;28991;52.028;5.526;2023-05-07T02:41:28;0.40;;;0.40;;
40288;SDS011;28991;52.028;5.526;2023-05-07T02:43:53;0.28;;;0.28;;
40288;SDS011;28991;52.028;5.526;2023-05-07T02:46:19;0.30;;;0.30;;
40288;SDS011;28991;52.028;5.526;2023-05-07T02:48:45;0.40;;;0.40;;
40288;SDS011;28991;52.028;5.526;2023-05-07T02:51:10;0.30;;;0.30;;
40288;SDS011;28991;52.028;5.526;2023-05-07T02:53:36;0.40;;;0.40;;
40288;SDS011;28991;52.028;5.526;2023-05-07T02:56:01;0.35;;;0.35;;
40288;SDS011;28991;52.028;5.526;2023-05-07T02:58:27;0.30;;;0.30;;
40288;SDS011;28991;52.028;5.526;2023-05-07T03:00:53;0.43;;;0.30;;
40288;SDS011;28991;52.028;5.526;2023-05-07T03:03:22;0.30;;;0.30;;
40288;SDS011;28991;52.028;5.526;2023-05-07T03:05:47;0.30;;;0.30;;
40288;SDS011;28991;52.028;5.526;2023-05-07T03:08:13;0.40;;;0.40;;
40288;SDS011;28991;52.028;5.526;2023-05-07T03:10:39;0.30;;;0.30;;
40288;SDS011;28991;52.028;5.526;2023-05-07T03:13:05;0.25;;;0.25;;
40288;SDS011;28991;52.028;5.526;2023-05-07T03:15:30;0.40;;;0.40;;
40288;SDS011;28991;52.028;5.526;2023-05-07T03:17:56;0.30;;;0.30;;
40288;SDS011;28991;52.028;5.526;2023-05-07T03:20:21;0.40;;;0.40;;
40288;SDS011;28991;52.028;5.526;2023-05-07T03:22:47;0.35;;;0.35;;
40288;SDS011;28991;52.028;5.526;2023-05-07T03:25:13;0.30;;;0.30;;
40288;SDS011;28991;52.028;5.526;2023-05-07T03:27:39;0.30;;;0.30;;
40288;SDS011;28991;52.028;5.526;2023-05-07T03:30:07;0.40;;;0.40;;
40288;SDS011;28991;52.028;5.526;2023-05-07T03:32:33;0.40;;;0.40;;
40288;SDS011;28991;52.028;5.526;2023-05-07T03:35:00;0.52;;;0.40;;
40288;SDS011;28991;52.028;5.526;2023-05-07T03:37:26;0.32;;;0.32;;
40288;SDS011;28991;52.028;5.526;2023-05-07T03:39:51;0.40;;;0.30;;
40288;SDS011;28991;52.028;5.526;2023-05-07T03:42:17;0.55;;;0.45;;
40288;SDS011;28991;52.028;5.526;2023-05-07T03:44:42;0.35;;;0.35;;
40288;SDS011;28991;52.028;5.526;2023-05-07T03:47:08;0.30;;;0.30;;
40288;SDS011;28991;52.028;5.526;2023-05-07T03:49:35;0.40;;;0.40;;
40288;SDS011;28991;52.028;5.526;2023-05-07T03:52:00;0.40;;;0.40;;
40288;SDS011;28991;52.028;5.526;2023-05-07T03:54:26;0.30;;;0.30;;
40288;SDS011;28991;52.028;5.526;2023-05-07T03:56:51;0.30;;;0.30;;
40288;SDS011;28991;52.028;5.526;2023-05-07T03:59:17;0.40;;;0.40;;
40288;SDS011;28991;52.028;5.526;2023-05-07T04:01:43;0.30;;;0.30;;
40288;SDS011;28991;52.028;5.526;2023-05-07T04:04:08;0.35;;;0.32;;
40288;SDS011;28991;52.028;5.526;2023-05-07T04:06:34;0.20;;;0.20;;
40288;SDS011;28991;52.028;5.526;2023-05-07T04:08:59;0.30;;;0.30;;
40288;SDS011;28991;52.028;5.526;2023-05-07T04:11:25;0.32;;;0.32;;
40288;SDS011;28991;52.028;5.526;2023-05-07T04:13:51;0.20;;;0.20;;
40288;SDS011;28991;52.028;5.526;2023-05-07T04:16:16;0.32;;;0.32;;
40288;SDS011;28991;52.028;5.526;2023-05-07T04:18:42;0.45;;;0.45;;
40288;SDS011;28991;52.028;5.526;2023-05-07T04:21:17;0.40;;;0.40;;
40288;SDS011;28991;52.028;5.526;2023-05-07T04:23:45;0.22;;;0.22;;
40288;SDS011;28991;52.028;5.526;2023-05-07T04:26:12;0.40;;;0.40;;
40288;SDS011;28991;52.028;5.526;2023-05-07T04:28:38;0.25;;;0.25;;
40288;SDS011;28991;52.028;5.526;2023-05-07T04:31:04;0.40;;;0.40;;
40288;SDS011;28991;52.028;5.526;2023-05-07T04:33:30;0.25;;;0.25;;
40288;SDS011;28991;52.028;5.526;2023-05-07T04:35:56;0.50;;;0.43;;
40288;SDS011;28991;52.028;5.526;2023-05-07T04:38:22;0.40;;;0.40;;
40288;SDS011;28991;52.028;5.526;2023-05-07T04:40:48;0.55;;;0.55;;
40288;SDS011;28991;52.028;5.526;2023-05-07T04:43:14;1.15;;;1.05;;
40288;SDS011;28991;52.028;5.526;2023-05-07T04:45:41;0.70;;;0.70;;
40288;SDS011;28991;52.028;5.526;2023-05-07T04:48:06;1.35;;;0.98;;
40288;SDS011;28991;52.028;5.526;2023-05-07T04:50:33;1.02;;;0.93;;
40288;SDS011;28991;52.028;5.526;2023-05-07T04:52:59;1.38;;;1.20;;
40288;SDS011;28991;52.028;5.526;2023-05-07T04:55:24;1.00;;;1.00;;
40288;SDS011;28991;52.028;5.526;2023-05-07T04:57:50;1.00;;;1.00;;
40288;SDS011;28991;52.028;5.526;2023-05-07T05:00:16;1.27;;;0.90;;
40288;SDS011;28991;52.028;5.526;2023-05-07T05:02:44;1.17;;;1.08;;
40288;SDS011;28991;52.028;5.526;2023-05-07T05:05:10;1.30;;;1.20;;
40288;SDS011;28991;52.028;5.526;2023-05-07T05:07:36;2.30;;;1.60;;
40288;SDS011;28991;52.028;5.526;2023-05-07T05:10:02;1.30;;;1.20;;
40288;SDS011;28991;52.028;5.526;2023-05-07T05:12:28;2.45;;;1.67;;
40288;SDS011;28991;52.028;5.526;2023-05-07T05:14:55;1.65;;;1.55;;
40288;SDS011;28991;52.028;5.526;2023-05-07T05:17:20;1.50;;;1.30;;
40288;SDS011;28991;52.028;5.526;2023-05-07T05:19:46;1.95;;;1.60;;
40288;SDS011;28991;52.028;5.526;2023-05-07T05:22:11;1.63;;;1.52;;
40288;SDS011;28991;52.028;5.526;2023-05-07T05:24:37;2.28;;;1.48;;
40288;SDS011;28991;52.028;5.526;2023-05-07T05:27:02;2.17;;;2.00;;
40288;SDS011;28991;52.028;5.526;2023-05-07T05:29:28;2.05;;;1.70;;
40288;SDS011;28991;52.028;5.526;2023-05-07T05:31:54;1.85;;;1.75;;
40288;SDS011;28991;52.028;5.526;2023-05-07T05:34:20;1.67;;;1.48;;
40288;SDS011;28991;52.028;5.526;2023-05-07T05:36:46;1.70;;;1.60;;
40288;SDS011;28991;52.028;5.526;2023-05-07T05:39:12;1.80;;;1.70;;
40288;SDS011;28991;52.028;5.526;2023-05-07T05:41:37;1.63;;;1.52;;
40288;SDS011;28991;52.028;5.526;2023-05-07T05:44:03;1.88;;;1.77;;
40288;SDS011;28991;52.028;5.526;2023-05-07T05:46:29;1.30;;;1.20;;
40288;SDS011;28991;52.028;5.526;2023-05-07T05:48:54;2.17;;;1.83;;
40288;SDS011;28991;52.028;5.526;2023-05-07T05:51:20;1.67;;;1.48;;
40288;SDS011;28991;52.028;5.526;2023-05-07T05:53:46;1.80;;;1.52;;
40288;SDS011;28991;52.028;5.526;2023-05-07T05:56:12;2.00;;;1.52;;
40288;SDS011;28991;52.028;5.526;2023-05-07T05:58:37;2.03;;;1.80;;
40288;SDS011;28991;52.028;5.526;2023-05-07T06:01:03;2.10;;;1.70;;
40288;SDS011;28991;52.028;5.526;2023-05-07T06:03:28;3.42;;;2.17;;
40288;SDS011;28991;52.028;5.526;2023-05-07T06:05:54;1.98;;;1.80;;
40288;SDS011;28991;52.028;5.526;2023-05-07T06:08:19;1.83;;;1.70;;
40288;SDS011;28991;52.028;5.526;2023-05-07T06:10:45;2.05;;;1.80;;
40288;SDS011;28991;52.028;5.526;2023-05-07T06:13:11;2.22;;;1.98;;
40288;SDS011;28991;52.028;5.526;2023-05-07T06:15:36;1.63;;;1.52;;
40288;SDS011;28991;52.028;5.526;2023-05-07T06:18:02;1.98;;;1.60;;
40288;SDS011;28991;52.028;5.526;2023-05-07T06:20:27;2.00;;;1.75;;
40288;SDS011;28991;52.028;5.526;2023-05-07T06:22:53;2.53;;;1.90;;
40288;SDS011;28991;52.028;5.526;2023-05-07T06:25:18;1.70;;;1.60;;
40288;SDS011;28991;52.028;5.526;2023-05-07T06:27:44;1.80;;;1.70;;
40288;SDS011;28991;52.028;5.526;2023-05-07T06:30:10;2.03;;;1.83;;
40288;SDS011;28991;52.028;5.526;2023-05-07T06:32:36;1.90;;;1.65;;
40288;SDS011;28991;52.028;5.526;2023-05-07T06:35:02;2.42;;;1.88;;
40288;SDS011;28991;52.028;5.526;2023-05-07T06:37:27;2.45;;;2.22;;
40288;SDS011;28991;52.028;5.526;2023-05-07T06:39:53;1.90;;;1.50;;
40288;SDS011;28991;52.028;5.526;2023-05-07T06:42:18;1.60;;;1.50;;
40288;SDS011;28991;52.028;5.526;2023-05-07T06:44:44;1.77;;;1.67;;
40288;SDS011;28991;52.028;5.526;2023-05-07T06:47:10;2.33;;;1.60;;
40288;SDS011;28991;52.028;5.526;2023-05-07T06:49:35;2.65;;;1.83;;
40288;SDS011;28991;52.028;5.526;2023-05-07T06:52:01;1.90;;;1.77;;
40288;SDS011;28991;52.028;5.526;2023-05-07T06:54:26;2.13;;;1.63;;
40288;SDS011;28991;52.028;5.526;2023-05-07T06:56:52;1.55;;;1.45;;
40288;SDS011;28991;52.028;5.526;2023-05-07T06:59:18;1.92;;;1.73;;
40288;SDS011;28991;52.028;5.526;2023-05-07T07:01:44;2.08;;;1.95;;
40288;SDS011;28991;52.028;5.526;2023-05-07T07:04:09;1.95;;;1.75;;
40288;SDS011;28991;52.028;5.526;2023-05-07T07:06:35;1.75;;;1.65;;
40288;SDS011;28991;52.028;5.526;2023-05-07T07:09:00;2.03;;;1.83;;
40288;SDS011;28991;52.028;5.526;2023-05-07T07:11:26;3.35;;;1.67;;
40288;SDS011;28991;52.028;5.526;2023-05-07T07:13:52;1.95;;;1.70;;
40288;SDS011;28991;52.028;5.526;2023-05-07T07:16:19;2.08;;;1.80;;
40288;SDS011;28991;52.028;5.526;2023-05-07T07:18:45;1.70;;;1.60;;
40288;SDS011;28991;52.028;5.526;2023-05-07T07:21:11;2.08;;;1.88;;
40288;SDS011;28991;52.028;5.526;2023-05-07T07:23:36;2.25;;;2.05;;
40288;SDS011;28991;52.028;5.526;2023-05-07T07:26:02;2.08;;;1.88;;
40288;SDS011;28991;52.028;5.526;2023-05-07T07:28:28;2.58;;;2.17;;
40288;SDS011;28991;52.028;5.526;2023-05-07T07:30:53;3.03;;;1.73;;
40288;SDS011;28991;52.028;5.526;2023-05-07T07:33:19;2.35;;;2.15;;
40288;SDS011;28991;52.028;5.526;2023-05-07T07:35:45;1.98;;;1.88;;
40288;SDS011;28991;52.028;5.526;2023-05-07T07:38:10;1.77;;;1.67;;
40288;SDS011;28991;52.028;5.526;2023-05-07T07:40:36;2.60;;;1.95;;
40288;SDS011;28991;52.028;5.526;2023-05-07T07:43:02;1.67;;;1.58;;
40288;SDS011;28991;52.028;5.526;2023-05-07T07:45:27;1.85;;;1.65;;
40288;SDS011;28991;52.028;5.526;2023-05-07T07:47:54;1.98;;;1.88;;
40288;SDS011;28991;52.028;5.526;2023-05-07T07:50:19;2.15;;;1.95;;
40288;SDS011;28991;52.028;5.526;2023-05-07T07:52:45;1.95;;;1.73;;
40288;SDS011;28991;52.028;5.526;2023-05-07T07:55:11;2.30;;;2.08;;
40288;SDS011;28991;52.028;5.526;2023-05-07T07:57:37;1.98;;;1.58;;
40288;SDS011;28991;52.028;5.526;2023-05-07T08:00:03;2.20;;;1.88;;
40288;SDS011;28991;52.028;5.526;2023-05-07T08:02:29;2.17;;;1.98;;
40288;SDS011;28991;52.028;5.526;2023-05-07T08:04:55;2.28;;;2.08;;
40288;SDS011;28991;52.028;5.526;2023-05-07T08:07:20;1.70;;;1.60;;
40288;SDS011;28991;52.028;5.526;2023-05-07T08:09:47;2.25;;;2.05;;
40288;SDS011;28991;52.028;5.526;2023-05-07T08:12:13;2.40;;;2.00;;
40288;SDS011;28991;52.028;5.526;2023-05-07T08:14:39;1.80;;;1.70;;
40288;SDS011;28991;52.028;5.526;2023-05-07T08:17:05;3.13;;;1.90;;
40288;SDS011;28991;52.028;5.526;2023-05-07T08:19:30;1.65;;;1.55;;
40288;SDS011;28991;52.028;5.526;2023-05-07T08:21:56;2.03;;;1.83;;
40288;SDS011;28991;52.028;5.526;2023-05-07T08:24:22;2.20;;;2.00;;
40288;SDS011;28991;52.028;5.526;2023-05-07T08:26:47;2.08;;;1.88;;
40288;SDS011;28991;52.028;5.526;2023-05-07T08:29:13;2.42;;;1.85;;
40288;SDS011;28991;52.028;5.526;2023-05-07T08:31:38;1.80;;;1.70;;
40288;SDS011;28991;52.028;5.526;2023-05-07T08:34:04;2.13;;;1.88;;
40288;SDS011;28991;52.028;5.526;2023-05-07T08:36:31;2.08;;;1.92;;
40288;SDS011;28991;52.028;5.526;2023-05-07T08:38:57;2.30;;;2.10;;
40288;SDS011;28991;52.028;5.526;2023-05-07T08:41:22;2.08;;;1.88;;
40288;SDS011;28991;52.028;5.526;2023-05-07T08:43:48;2.30;;;2.00;;
40288;SDS011;28991;52.028;5.526;2023-05-07T08:46:19;2.15;;;1.90;;
40288;SDS011;28991;52.028;5.526;2023-05-07T08:48:49;2.28;;;1.90;;
40288;SDS011;28991;52.028;5.526;2023-05-07T08:51:16;2.38;;;1.70;;
40288;SDS011;28991;52.028;5.526;2023-05-07T08:53:43;2.15;;;1.90;;
40288;SDS011;28991;52.028;5.526;2023-05-07T08:56:09;2.30;;;2.10;;
40288;SDS011;28991;52.028;5.526;2023-05-07T08:58:35;2.20;;;2.00;;
40288;SDS011;28991;52.028;5.526;2023-05-07T09:01:02;3.55;;;2.03;;
40288;SDS011;28991;52.028;5.526;2023-05-07T09:03:32;2.28;;;2.08;;
40288;SDS011;28991;52.028;5.526;2023-05-07T09:05:57;2.03;;;1.85;;
40288;SDS011;28991;52.028;5.526;2023-05-07T09:08:26;2.67;;;2.08;;
40288;SDS011;28991;52.028;5.526;2023-05-07T09:10:52;1.95;;;1.83;;
40288;SDS011;28991;52.028;5.526;2023-05-07T09:13:18;2.28;;;2.00;;
40288;SDS011;28991;52.028;5.526;2023-05-07T09:15:44;2.10;;;1.98;;
40288;SDS011;28991;52.028;5.526;2023-05-07T09:18:10;2.22;;;2.03;;
40288;SDS011;28991;52.028;5.526;2023-05-07T09:20:37;2.10;;;1.90;;
40288;SDS011;28991;52.028;5.526;2023-05-07T09:23:02;2.20;;;2.00;;
40288;SDS011;28991;52.028;5.526;2023-05-07T09:25:29;2.20;;;2.00;;
40288;SDS011;28991;52.028;5.526;2023-05-07T09:27:59;2.83;;;2.15;;
40288;SDS011;28991;52.028;5.526;2023-05-07T09:30:29;2.17;;;1.98;;
40288;SDS011;28991;52.028;5.526;2023-05-07T09:32:56;1.70;;;1.60;;
40288;SDS011;28991;52.028;5.526;2023-05-07T09:35:23;2.15;;;1.95;;
40288;SDS011;28991;52.028;5.526;2023-05-07T09:37:55;2.10;;;1.90;;
40288;SDS011;28991;52.028;5.526;2023-05-07T09:40:23;2.50;;;2.20;;
40288;SDS011;28991;52.028;5.526;2023-05-07T09:42:50;2.63;;;1.70;;
40288;SDS011;28991;52.028;5.526;2023-05-07T09:45:16;1.80;;;1.70;;
40288;SDS011;28991;52.028;5.526;2023-05-07T09:47:47;2.70;;;2.10;;
40288;SDS011;28991;52.028;5.526;2023-05-07T09:50:14;2.22;;;2.03;;
40288;SDS011;28991;52.028;5.526;2023-05-07T09:52:41;2.30;;;2.10;;
40288;SDS011;28991;52.028;5.526;2023-05-07T09:55:08;2.85;;;2.47;;
40288;SDS011;28991;52.028;5.526;2023-05-07T09:57:35;2.70;;;2.30;;
40288;SDS011;28991;52.028;5.526;2023-05-07T10:00:03;2.60;;;2.40;;
40288;SDS011;28991;52.028;5.526;2023-05-07T10:02:33;3.05;;;2.30;;
40288;SDS011;28991;52.028;5.526;2023-05-07T10:05:02;2.25;;;2.05;;
40288;SDS011;28991;52.028;5.526;2023-05-07T10:07:29;3.13;;;2.83;;
40288;SDS011;28991;52.028;5.526;2023-05-07T10:09:55;3.40;;;2.95;;
40288;SDS011;28991;52.028;5.526;2023-05-07T10:12:22;2.67;;;2.47;;
40288;SDS011;28991;52.028;5.526;2023-05-07T10:14:49;2.63;;;2.42;;
40288;SDS011;28991;52.028;5.526;2023-05-07T10:17:16;3.90;;;2.28;;
40288;SDS011;28991;52.028;5.526;2023-05-07T10:19:44;2.67;;;2.40;;
40288;SDS011;28991;52.028;5.526;2023-05-07T10:22:09;3.53;;;2.65;;
40288;SDS011;28991;52.028;5.526;2023-05-07T10:24:38;2.83;;;2.22;;
40288;SDS011;28991;52.028;5.526;2023-05-07T10:27:05;2.08;;;1.92;;
40288;SDS011;28991;52.028;5.526;2023-05-07T10:29:39;2.67;;;2.28;;
40288;SDS011;28991;52.028;5.526;2023-05-07T10:35:01;3.80;;;3.00;;
40288;SDS011;28991;52.028;5.526;2023-05-07T10:37:29;2.60;;;2.40;;
40288;SDS011;28991;52.028;5.526;2023-05-07T10:39:55;2.53;;;2.20;;
40288;SDS011;28991;52.028;5.526;2023-05-07T10:42:22;2.72;;;2.53;;
40288;SDS011;28991;52.028;5.526;2023-05-07T10:44:48;3.33;;;2.58;;
40288;SDS011;28991;52.028;5.526;2023-05-07T10:47:15;3.50;;;2.55;;
40288;SDS011;28991;52.028;5.526;2023-05-07T10:52:16;2.40;;;2.20;;
40288;SDS011;28991;52.028;5.526;2023-05-07T10:57:46;2.85;;;2.38;;
40288;SDS011;28991;52.028;5.526;2023-05-07T11:05:28;2.25;;;1.83;;
40288;SDS011;28991;52.028;5.526;2023-05-07T11:07:56;2.70;;;1.90;;
40288;SDS011;28991;52.028;5.526;2023-05-07T11:10:23;2.20;;;1.90;;
40288;SDS011;28991;52.028;5.526;2023-05-07T11:13:08;2.67;;;1.88;;
40288;SDS011;28991;52.028;5.526;2023-05-07T11:15:35;2.58;;;1.98;;
40288;SDS011;28991;52.028;5.526;2023-05-07T11:18:04;2.15;;;1.63;;
40288;SDS011;28991;52.028;5.526;2023-05-07T11:26:14;1.75;;;1.65;;
40288;SDS011;28991;52.028;5.526;2023-05-07T11:28:41;2.30;;;1.92;;
40288;SDS011;28991;52.028;5.526;2023-05-07T11:31:08;1.95;;;1.33;;
40288;SDS011;28991;52.028;5.526;2023-05-07T11:33:34;2.22;;;1.70;;
40288;SDS011;28991;52.028;5.526;2023-05-07T11:36:04;2.63;;;1.80;;
40288;SDS011;28991;52.028;5.526;2023-05-07T11:38:30;1.75;;;1.60;;
40288;SDS011;28991;52.028;5.526;2023-05-07T11:41:00;1.63;;;1.52;;
40288;SDS011;28991;52.028;5.526;2023-05-07T11:43:25;1.55;;;1.45;;
40288;SDS011;28991;52.028;5.526;2023-05-07T11:45:51;2.58;;;1.48;;
40288;SDS011;28991;52.028;5.526;2023-05-07T11:48:17;1.60;;;1.50;;
40288;SDS011;28991;52.028;5.526;2023-05-07T11:50:53;1.52;;;1.40;;
40288;SDS011;28991;52.028;5.526;2023-05-07T11:53:37;1.50;;;1.40;;
40288;SDS011;28991;52.028;5.526;2023-05-07T11:58:40;1.60;;;1.50;;
40288;SDS011;28991;52.028;5.526;2023-05-07T12:01:07;1.60;;;1.30;;
40288;SDS011;28991;52.028;5.526;2023-05-07T12:03:34;1.70;;;1.30;;
40288;SDS011;28991;52.028;5.526;2023-05-07T12:06:02;1.70;;;1.40;;
40288;SDS011;28991;52.028;5.526;2023-05-07T12:08:30;1.27;;;1.17;;
40288;SDS011;28991;52.028;5.526;2023-05-07T12:10:56;1.30;;;1.20;;
40288;SDS011;28991;52.028;5.526;2023-05-07T12:13:22;1.80;;;1.55;;
40288;SDS011;28991;52.028;5.526;2023-05-07T12:15:52;2.03;;;1.45;;
40288;SDS011;28991;52.028;5.526;2023-05-07T12:18:19;1.30;;;1.20;;
40288;SDS011;28991;52.028;5.526;2023-05-07T12:20:45;1.45;;;1.35;;
40288;SDS011;28991;52.028;5.526;2023-05-07T12:23:11;1.30;;;1.20;;
40288;SDS011;28991;52.028;5.526;2023-05-07T12:25:37;1.30;;;1.20;;
40288;SDS011;28991;52.028;5.526;2023-05-07T12:28:05;1.85;;;1.35;;
40288;SDS011;28991;52.028;5.526;2023-05-07T12:30:31;1.10;;;0.93;;
40288;SDS011;28991;52.028;5.526;2023-05-07T12:33:01;1.15;;;1.05;;
40288;SDS011;28991;52.028;5.526;2023-05-07T12:35:27;1.48;;;1.20;;
40288;SDS011;28991;52.028;5.526;2023-05-07T12:37:57;1.75;;;1.20;;
40288;SDS011;28991;52.028;5.526;2023-05-07T12:40:25;1.40;;;1.20;;
40288;SDS011;28991;52.028;5.526;2023-05-07T12:43:04;1.33;;;1.10;;
40288;SDS011;28991;52.028;5.526;2023-05-07T12:45:29;1.80;;;1.30;;
40288;SDS011;28991;52.028;5.526;2023-05-07T12:47:55;1.42;;;1.10;;
40288;SDS011;28991;52.028;5.526;2023-05-07T12:50:21;1.60;;;1.42;;
40288;SDS011;28991;52.028;5.526;2023-05-07T12:52:47;1.25;;;1.15;;
40288;SDS011;28991;52.028;5.526;2023-05-07T12:55:14;1.42;;;1.20;;
40288;SDS011;28991;52.028;5.526;2023-05-07T12:57:41;1.60;;;1.30;;
40288;SDS011;28991;52.028;5.526;2023-05-07T13:00:09;1.60;;;1.40;;
40288;SDS011;28991;52.028;5.526;2023-05-07T13:02:38;1.40;;;1.30;;
40288;SDS011;28991;52.028;5.526;2023-05-07T13:05:05;1.95;;;1.20;;
40288;SDS011;28991;52.028;5.526;2023-05-07T13:07:32;1.30;;;1.20;;
40288;SDS011;28991;52.028;5.526;2023-05-07T13:09:57;2.30;;;1.60;;
40288;SDS011;28991;52.028;5.526;2023-05-07T13:12:23;1.48;;;1.38;;
40288;SDS011;28991;52.028;5.526;2023-05-07T13:14:48;1.58;;;1.20;;
40288;SDS011;28991;52.028;5.526;2023-05-07T13:17:14;1.20;;;0.95;;
40288;SDS011;28991;52.028;5.526;2023-05-07T13:19:39;0.90;;;0.90;;
40288;SDS011;28991;52.028;5.526;2023-05-07T13:22:05;1.25;;;1.10;;
40288;SDS011;28991;52.028;5.526;2023-05-07T13:24:31;1.17;;;1.08;;
40288;SDS011;28991;52.028;5.526;2023-05-07T13:26:56;1.65;;;1.33;;
40288;SDS011;28991;52.028;5.526;2023-05-07T13:29:22;1.58;;;1.15;;
40288;SDS011;28991;52.028;5.526;2023-05-07T13:31:53;1.20;;;1.08;;
40288;SDS011;28991;52.028;5.526;2023-05-07T13:34:19;1.40;;;1.20;;
40288;SDS011;28991;52.028;5.526;2023-05-07T13:36:45;1.67;;;1.20;;
40288;SDS011;28991;52.028;5.526;2023-05-07T13:39:11;1.17;;;1.00;;
40288;SDS011;28991;52.028;5.526;2023-05-07T13:41:36;1.58;;;1.20;;
40288;SDS011;28991;52.028;5.526;2023-05-07T13:44:02;1.67;;;1.50;;
40288;SDS011;28991;52.028;5.526;2023-05-07T13:46:27;1.30;;;1.20;;
40288;SDS011;28991;52.028;5.526;2023-05-07T13:48:54;1.30;;;1.20;;
40288;SDS011;28991;52.028;5.526;2023-05-07T13:51:20;1.10;;;1.00;;
40288;SDS011;28991;52.028;5.526;2023-05-07T13:53:46;1.30;;;1.20;;
40288;SDS011;28991;52.028;5.526;2023-05-07T13:56:12;1.17;;;1.08;;
40288;SDS011;28991;52.028;5.526;2023-05-07T13:58:39;1.45;;;1.13;;
40288;SDS011;28991;52.028;5.526;2023-05-07T14:01:05;1.83;;;1.73;;
40288;SDS011;28991;52.028;5.526;2023-05-07T14:03:30;1.20;;;1.10;;
40288;SDS011;28991;52.028;5.526;2023-05-07T14:05:57;1.70;;;1.60;;
40288;SDS011;28991;52.028;5.526;2023-05-07T14:08:24;1.70;;;1.20;;
40288;SDS011;28991;52.028;5.526;2023-05-07T14:10:50;1.00;;;1.00;;
40288;SDS011;28991;52.028;5.526;2023-05-07T14:13:16;1.45;;;1.15;;
40288;SDS011;28991;52.028;5.526;2023-05-07T14:15:42;1.23;;;1.10;;
40288;SDS011;28991;52.028;5.526;2023-05-07T14:18:11;1.30;;;1.00;;
40288;SDS011;28991;52.028;5.526;2023-05-07T14:20:37;1.52;;;1.40;;
40288;SDS011;28991;52.028;5.526;2023-05-07T14:23:03;1.42;;;1.20;;
40288;SDS011;28991;52.028;5.526;2023-05-07T14:25:28;1.20;;;1.10;;
40288;SDS011;28991;52.028;5.526;2023-05-07T14:27:54;1.15;;;1.05;;
40288;SDS011;28991;52.028;5.526;2023-05-07T14:30:19;1.30;;;1.20;;
40288;SDS011;28991;52.028;5.526;2023-05-07T14:32:47;1.20;;;1.10;;
40288;SDS011;28991;52.028;5.526;2023-05-07T14:35:13;1.20;;;1.00;;
40288;SDS011;28991;52.028;5.526;2023-05-07T14:37:39;1.10;;;1.00;;
40288;SDS011;28991;52.028;5.526;2023-05-07T14:40:05;1.30;;;1.20;;
40288;SDS011;28991;52.028;5.526;2023-05-07T14:42:31;1.33;;;1.23;;
40288;SDS011;28991;52.028;5.526;2023-05-07T14:44:56;1.20;;;1.10;;
40288;SDS011;28991;52.028;5.526;2023-05-07T14:47:22;1.15;;;1.05;;
40288;SDS011;28991;52.028;5.526;2023-05-07T14:49:47;1.20;;;1.10;;
40288;SDS011;28991;52.028;5.526;2023-05-07T14:52:13;1.20;;;1.10;;
40288;SDS011;28991;52.028;5.526;2023-05-07T14:54:39;1.50;;;1.10;;
40288;SDS011;28991;52.028;5.526;2023-05-07T14:57:05;1.30;;;1.20;;
40288;SDS011;28991;52.028;5.526;2023-05-07T14:59:31;1.20;;;1.10;;
40288;SDS011;28991;52.028;5.526;2023-05-07T15:01:57;1.10;;;1.00;;
40288;SDS011;28991;52.028;5.526;2023-05-07T15:04:23;1.33;;;0.90;;